LiveATC.Net - Listen to live air traffic control over the Internet! Contact LiveATC.net for advertising information


ICAO: MMLP  IATA: LAP   Airport: Gen Manuel Marquez Airport
City: La Paz
Country: Mexico   Continent: North America
MMLP METAR Weather: MMLP 182241Z 23006KT 10SM FEW040 FEW200 32/20 A2976 RMK 8/101 DSNT CB SE
MMLP Flight Activity (FlightAware)
MMLP Twr/App/Center
Feed Status: DOWN
Last heard on: 2014-04-30 02:30:03 (141 days 21 hours 17 minutes ago)
MMLP Twr/App/Center Audio Archives
FacilityFrequency
La Paz Approach120.600
La Paz Tower118.100
Los Cabos Approach120.900
Mazatlan Center124.200
Mazatlan Center124.400
Mazatlan Center126.300
Mazatlan Center128.000
Mazatlan Center128.300


NOTICE

Unauthorized use prohibited. See LiveATC.net Terms of Service


Find LiveATC Audio Streams


Airport/ARTCC Code

Frequency
(e.g., 124.400, 128.75)
Site-wide search

Browse LiveATC Feeds
LiveATC Coverage Map
Top 50 LiveATC Feeds
Bad Weather Areas

LiveATC FAQ
Offer a LiveATC Feed
Contact LiveATC.net
Press Inquiries

LiveATC on iPhone
LiveATC on Android

LiveATC Mobile
(Mobile browser)

ATC Audio Archives
Interesting Recordings

LiveATC Forums


Home Page
About LiveATC.net
Make a Donation
LiveATC Bookstore

Terms of Use
Privacy Policy

ATC/Radar Sites
U.S. ARTCC Freqs
Canadian Air Freqs

AIRMETs/SIGMETs

FAA Airport Status
Nat'l Airspace Status
Arrival Demand Charts


Server Software By:
Icecast.org
Liquidsoap

Please make a donation to help us keep growing!